createdAt,value
2019-01-23T00:00:54.171Z,0.00
2019-01-23T00:01:54.216Z,0.00
2019-01-23T00:02:54.164Z,0.00
2019-01-23T00:03:54.156Z,0.00
2019-01-23T00:04:54.130Z,0.00
2019-01-23T00:05:54.171Z,0.00
2019-01-23T00:06:54.126Z,0.00
2019-01-23T00:07:54.181Z,0.00
2019-01-23T00:08:54.087Z,0.00
2019-01-23T00:09:54.083Z,0.00
2019-01-23T00:10:54.086Z,0.00
2019-01-23T00:11:54.061Z,0.00
2019-01-23T00:12:54.048Z,0.00
2019-01-23T00:13:54.053Z,0.00
2019-01-23T00:14:54.038Z,0.00
2019-01-23T00:15:54.018Z,0.00
2019-01-23T00:16:54.010Z,0.00
2019-01-23T00:17:54.002Z,0.00
2019-01-23T00:18:54.005Z,0.00
2019-01-23T00:19:54.074Z,0.00
2019-01-23T00:20:53.992Z,0.00
2019-01-23T00:21:53.979Z,0.00
2019-01-23T00:22:54.001Z,0.00
2019-01-23T00:23:53.953Z,0.00
2019-01-23T00:24:53.923Z,0.00
2019-01-23T00:25:53.927Z,0.00
2019-01-23T00:26:53.920Z,0.00
2019-01-23T00:27:53.895Z,0.00
2019-01-23T00:28:53.924Z,0.00
2019-01-23T00:29:53.881Z,0.00
2019-01-23T00:30:53.921Z,0.00
2019-01-23T00:31:53.851Z,0.00
2019-01-23T00:32:53.845Z,0.00
2019-01-23T00:33:53.857Z,0.00
2019-01-23T00:34:53.870Z,0.00
2019-01-23T00:35:53.854Z,0.00
2019-01-23T00:36:53.802Z,0.00
2019-01-23T00:37:53.833Z,0.00
2019-01-23T00:38:53.831Z,0.00
2019-01-23T00:39:53.791Z,0.00
2019-01-23T00:40:53.790Z,0.00
2019-01-23T00:41:53.759Z,0.00
2019-01-23T00:42:53.743Z,0.00
2019-01-23T00:43:53.788Z,0.00
2019-01-23T00:44:53.850Z,0.00
2019-01-23T00:45:53.722Z,0.00
2019-01-23T00:46:53.720Z,0.00
2019-01-23T00:47:53.719Z,0.00
2019-01-23T00:48:53.764Z,0.00
2019-01-23T00:49:53.677Z,0.00
2019-01-23T00:50:53.681Z,0.00
2019-01-23T00:51:53.650Z,0.00
2019-01-23T00:52:53.640Z,0.00
2019-01-23T00:53:53.666Z,0.00
2019-01-23T00:54:53.648Z,0.00
2019-01-23T00:55:53.630Z,0.00
2019-01-23T00:56:53.598Z,0.00
2019-01-23T00:57:53.605Z,0.00
2019-01-23T00:58:53.598Z,0.00
2019-01-23T00:59:53.572Z,0.00
2019-01-23T01:00:53.601Z,0.00
2019-01-23T01:01:53.731Z,0.00
2019-01-23T01:02:53.539Z,0.00
2019-01-23T01:03:53.548Z,0.00
2019-01-23T01:04:53.523Z,0.00
2019-01-23T01:05:53.548Z,0.00
2019-01-23T01:06:53.539Z,0.00
2019-01-23T01:07:53.484Z,0.00
2019-01-23T01:08:53.507Z,0.00
2019-01-23T01:09:53.506Z,0.00
2019-01-23T01:10:53.485Z,0.00
2019-01-23T01:11:53.466Z,0.00
2019-01-23T01:12:53.436Z,0.00
2019-01-23T01:13:53.528Z,0.00
2019-01-23T01:14:53.417Z,0.00
2019-01-23T01:15:53.453Z,0.00
2019-01-23T01:16:53.395Z,0.00
2019-01-23T01:17:53.430Z,0.00
2019-01-23T01:18:53.399Z,0.00
2019-01-23T01:19:53.423Z,0.00
2019-01-23T01:20:53.358Z,0.00
2019-01-23T01:21:53.349Z,0.00
2019-01-23T01:22:53.337Z,0.00
2019-01-23T01:23:53.349Z,0.00
2019-01-23T01:24:53.316Z,0.00
2019-01-23T01:25:53.383Z,0.00
2019-01-23T01:26:53.294Z,0.00
2019-01-23T01:27:53.312Z,0.00
2019-01-23T01:28:56.039Z,0.00
2019-01-23T01:29:53.294Z,0.00
2019-01-23T01:30:53.297Z,0.00
2019-01-23T01:31:53.244Z,0.00
2019-01-23T01:32:53.237Z,0.00
2019-01-23T01:33:53.258Z,0.00
2019-01-23T01:34:53.283Z,0.00
2019-01-23T01:35:53.207Z,0.00
2019-01-23T01:36:53.195Z,0.00
2019-01-23T01:37:53.188Z,0.00
2019-01-23T01:38:53.238Z,0.00
2019-01-23T01:39:53.211Z,0.00
2019-01-23T01:40:53.210Z,0.00
2019-01-23T01:41:53.157Z,0.00
2019-01-23T01:42:53.135Z,0.00
2019-01-23T01:43:53.146Z,0.00
2019-01-23T01:44:53.144Z,0.00
2019-01-23T01:45:53.105Z,0.00
2019-01-23T01:46:53.099Z,0.00
2019-01-23T01:47:53.109Z,0.00
2019-01-23T01:48:53.124Z,0.00
2019-01-23T01:49:53.072Z,0.00
2019-01-23T01:50:53.049Z,0.00
2019-01-23T01:51:53.039Z,0.00
2019-01-23T01:52:53.061Z,0.00
2019-01-23T01:53:53.058Z,0.00
2019-01-23T01:54:53.009Z,0.00
2019-01-23T01:55:53.002Z,0.00
2019-01-23T01:56:52.990Z,0.00
2019-01-23T01:57:52.979Z,0.00
2019-01-23T01:58:52.972Z,0.00
2019-01-23T01:59:52.975Z,0.00
2019-01-23T02:00:52.948Z,0.00
2019-01-23T02:01:52.938Z,0.00
2019-01-23T02:02:52.956Z,0.00
2019-01-23T02:03:52.924Z,0.00
2019-01-23T02:04:52.931Z,0.00
2019-01-23T02:05:52.916Z,0.00
2019-01-23T02:06:52.909Z,0.00
2019-01-23T02:07:52.876Z,0.00
2019-01-23T02:08:52.868Z,0.00
2019-01-23T02:09:52.893Z,0.00
2019-01-23T02:10:52.844Z,0.00
2019-01-23T02:11:52.865Z,0.00
2019-01-23T02:12:52.829Z,0.00
2019-01-23T02:13:52.815Z,0.00
2019-01-23T02:14:53.017Z,0.00
2019-01-23T02:15:52.798Z,0.00
2019-01-23T02:16:52.783Z,0.00
2019-01-23T02:17:52.781Z,0.00
2019-01-23T02:18:52.781Z,0.00
2019-01-23T02:19:52.791Z,0.00
2019-01-23T02:20:52.779Z,0.00
2019-01-23T02:21:52.732Z,0.00
2019-01-23T02:22:52.764Z,0.00
2019-01-23T02:23:52.710Z,0.00
2019-01-23T02:24:52.699Z,0.00
2019-01-23T02:25:52.736Z,0.00
2019-01-23T02:26:52.693Z,0.00
2019-01-23T02:27:52.693Z,0.00
2019-01-23T02:28:52.658Z,0.00
2019-01-23T02:29:52.660Z,0.00
2019-01-23T02:30:52.660Z,0.00
2019-01-23T02:31:52.635Z,0.00
2019-01-23T02:32:52.681Z,0.00
2019-01-23T02:33:52.653Z,0.00
2019-01-23T02:34:52.613Z,0.00
2019-01-23T02:35:52.647Z,0.00
2019-01-23T02:36:52.584Z,0.00
2019-01-23T02:37:52.610Z,0.00
2019-01-23T02:38:52.573Z,0.00
2019-01-23T02:39:52.578Z,0.00
2019-01-23T02:40:52.534Z,0.00
2019-01-23T02:41:52.569Z,0.00
2019-01-23T02:42:52.551Z,0.00
2019-01-23T02:43:52.591Z,0.00
2019-01-23T02:44:52.496Z,0.00
2019-01-23T02:45:52.490Z,0.00
2019-01-23T02:46:52.494Z,0.00
2019-01-23T02:47:52.466Z,0.00
2019-01-23T02:48:52.458Z,0.00
2019-01-23T02:49:52.458Z,0.00
2019-01-23T02:50:52.453Z,0.00
2019-01-23T02:51:52.462Z,0.00
2019-01-23T02:52:52.424Z,0.00
2019-01-23T02:53:52.406Z,0.00
2019-01-23T02:54:52.418Z,0.00
2019-01-23T02:55:52.387Z,0.00
2019-01-23T02:56:52.665Z,0.00
2019-01-23T02:57:52.376Z,0.00
2019-01-23T02:58:52.363Z,0.00
2019-01-23T02:59:52.366Z,0.00
2019-01-23T03:00:52.330Z,0.00
2019-01-23T03:01:52.327Z,0.00
2019-01-23T03:02:52.336Z,0.00
2019-01-23T03:03:52.321Z,0.00
2019-01-23T03:04:52.327Z,0.00
2019-01-23T03:05:52.286Z,0.00
2019-01-23T03:06:52.305Z,0.00
2019-01-23T03:07:52.291Z,0.00
2019-01-23T03:08:52.260Z,0.00
2019-01-23T03:09:52.239Z,0.00
2019-01-23T03:10:52.251Z,0.00
2019-01-23T03:11:52.218Z,0.00
2019-01-23T03:12:52.248Z,0.00
2019-01-23T03:13:52.214Z,0.00
2019-01-23T03:14:52.236Z,0.00
2019-01-23T03:15:52.190Z,0.00
2019-01-23T03:16:52.169Z,0.00
2019-01-23T03:17:52.174Z,0.00
2019-01-23T03:18:52.166Z,0.00
2019-01-23T03:19:52.192Z,0.00
2019-01-23T03:20:52.169Z,0.00
2019-01-23T03:21:52.132Z,0.00
2019-01-23T03:22:52.127Z,0.00
2019-01-23T03:23:52.120Z,0.00
2019-01-23T03:24:52.087Z,0.00
2019-01-23T03:25:52.151Z,0.00
2019-01-23T03:26:52.106Z,0.00
2019-01-23T03:27:52.065Z,0.00
2019-01-23T03:28:52.088Z,0.00
2019-01-23T03:29:52.110Z,0.00
2019-01-23T03:30:52.039Z,0.00
2019-01-23T03:31:52.017Z,0.00
2019-01-23T03:32:52.007Z,0.00
2019-01-23T03:33:52.011Z,0.00
2019-01-23T03:34:52.037Z,0.00
2019-01-23T03:35:51.971Z,0.00
2019-01-23T03:36:51.961Z,0.00
2019-01-23T03:37:51.995Z,0.00
2019-01-23T03:38:51.958Z,0.00
2019-01-23T03:39:51.955Z,0.00
2019-01-23T03:40:51.973Z,0.00
2019-01-23T03:41:51.950Z,0.00
2019-01-23T03:42:51.933Z,0.00
2019-01-23T03:43:51.904Z,0.00
2019-01-23T03:44:51.945Z,0.00
2019-01-23T03:45:51.890Z,0.00
2019-01-23T03:46:51.902Z,0.00
2019-01-23T03:47:51.854Z,0.00
2019-01-23T03:48:51.844Z,0.00
2019-01-23T03:49:51.844Z,0.00
2019-01-23T03:50:51.893Z,0.00
2019-01-23T03:51:51.806Z,0.00
2019-01-23T03:52:51.833Z,0.00
2019-01-23T03:53:51.793Z,0.00
2019-01-23T03:54:51.822Z,0.00
2019-01-23T03:55:51.834Z,0.00
2019-01-23T03:56:51.767Z,0.00
2019-01-23T03:57:51.754Z,0.00
2019-01-23T03:58:51.736Z,0.00
2019-01-23T03:59:51.722Z,0.00
2019-01-23T04:00:51.758Z,0.00
2019-01-23T04:01:51.715Z,0.00
2019-01-23T04:02:51.766Z,0.00
2019-01-23T04:03:51.692Z,0.00
2019-01-23T04:04:51.704Z,0.00
2019-01-23T04:05:51.696Z,0.00
2019-01-23T04:06:51.710Z,0.00
2019-01-23T04:07:51.646Z,0.00
2019-01-23T04:08:51.664Z,0.00
2019-01-23T04:09:51.625Z,0.00
2019-01-23T04:10:51.673Z,0.00
2019-01-23T04:11:51.657Z,0.00
2019-01-23T04:12:51.596Z,0.00
2019-01-23T04:13:51.580Z,0.00
2019-01-23T04:14:51.566Z,0.00
2019-01-23T04:15:51.555Z,0.00
2019-01-23T04:16:51.561Z,0.00
2019-01-23T04:17:51.551Z,0.00
2019-01-23T04:18:51.526Z,0.00
2019-01-23T04:19:51.539Z,0.00
2019-01-23T04:20:51.549Z,0.00
2019-01-23T04:21:51.510Z,0.00
2019-01-23T04:22:51.518Z,0.00
2019-01-23T04:23:51.537Z,0.00
2019-01-23T04:24:51.475Z,0.00
2019-01-23T04:25:51.496Z,0.00
2019-01-23T04:26:51.472Z,0.00
2019-01-23T04:27:51.433Z,0.00
2019-01-23T04:28:51.501Z,0.00
2019-01-23T04:29:51.440Z,0.00
2019-01-23T04:30:51.404Z,0.00
2019-01-23T04:31:51.410Z,0.00
2019-01-23T04:32:51.449Z,0.00
2019-01-23T04:33:51.371Z,0.00
2019-01-23T04:34:51.402Z,0.00
2019-01-23T04:35:51.355Z,0.00
2019-01-23T04:36:51.382Z,0.00
2019-01-23T04:37:51.346Z,0.00
2019-01-23T04:38:51.322Z,0.00
2019-01-23T04:39:51.309Z,0.00
2019-01-23T04:40:51.336Z,0.00
2019-01-23T04:41:51.288Z,0.00
2019-01-23T04:42:51.306Z,0.00
2019-01-23T04:43:51.312Z,0.00
2019-01-23T04:44:51.344Z,0.00
2019-01-23T04:45:51.269Z,0.00
2019-01-23T04:46:51.264Z,0.00
2019-01-23T04:47:51.269Z,0.00
2019-01-23T04:48:51.253Z,0.00
2019-01-23T04:49:51.251Z,0.00
2019-01-23T04:50:51.200Z,0.00
2019-01-23T04:51:51.198Z,0.00
2019-01-23T04:52:51.223Z,0.00
2019-01-23T04:53:51.191Z,0.00
2019-01-23T04:54:51.182Z,0.00
2019-01-23T04:55:51.147Z,0.00
2019-01-23T04:56:51.148Z,0.00
2019-01-23T04:57:51.213Z,0.00
2019-01-23T04:58:51.113Z,0.00
2019-01-23T04:59:51.116Z,0.00
2019-01-23T05:00:51.134Z,0.00
2019-01-23T05:01:51.098Z,0.00
2019-01-23T05:02:51.135Z,0.00
2019-01-23T05:03:51.079Z,0.00
2019-01-23T05:04:51.062Z,0.00
2019-01-23T05:05:51.091Z,0.00
2019-01-23T05:06:51.030Z,0.00
2019-01-23T05:07:51.079Z,0.00
2019-01-23T05:08:51.026Z,0.00
2019-01-23T05:09:51.024Z,0.00
2019-01-23T05:10:51.045Z,0.00
2019-01-23T05:11:50.990Z,0.00
2019-01-23T05:12:51.015Z,0.00
2019-01-23T05:13:50.978Z,0.00
2019-01-23T05:14:50.949Z,0.00
2019-01-23T05:15:50.976Z,0.00
2019-01-23T05:16:50.961Z,0.00
2019-01-23T05:17:50.940Z,0.00
2019-01-23T05:18:50.913Z,0.00
2019-01-23T05:19:50.901Z,0.00
2019-01-23T05:20:50.893Z,0.00
2019-01-23T05:21:50.878Z,0.00
2019-01-23T05:22:50.897Z,0.00
2019-01-23T05:23:50.888Z,0.00
2019-01-23T05:24:50.891Z,0.00
2019-01-23T05:25:50.836Z,0.00
2019-01-23T05:26:50.826Z,0.00
2019-01-23T05:27:50.863Z,0.00
2019-01-23T05:28:50.852Z,0.00
2019-01-23T05:29:55.068Z,0.00
2019-01-23T05:30:50.783Z,0.00
2019-01-23T05:31:50.876Z,0.00
2019-01-23T05:32:50.788Z,0.00
2019-01-23T05:33:50.754Z,0.00
2019-01-23T05:34:50.742Z,0.00
2019-01-23T05:35:50.738Z,0.00
2019-01-23T05:36:50.728Z,0.00
2019-01-23T05:37:50.804Z,0.00
2019-01-23T05:38:50.730Z,0.00
2019-01-23T05:39:50.751Z,0.00
2019-01-23T05:40:50.702Z,0.00
2019-01-23T05:41:50.682Z,0.00
2019-01-23T05:42:50.728Z,0.00
2019-01-23T05:43:50.707Z,0.00
2019-01-23T05:44:50.638Z,0.00
2019-01-23T05:45:50.629Z,0.00
2019-01-23T05:46:50.617Z,0.00
2019-01-23T05:47:50.694Z,0.00
2019-01-23T05:48:50.621Z,0.00
2019-01-23T05:49:50.587Z,0.00
2019-01-23T05:50:50.579Z,0.00
2019-01-23T05:51:50.571Z,0.00
2019-01-23T05:52:50.567Z,0.00
2019-01-23T05:53:50.631Z,0.00
2019-01-23T05:54:50.538Z,0.00
2019-01-23T05:55:50.534Z,0.00
2019-01-23T05:56:50.604Z,0.00
2019-01-23T05:57:50.529Z,0.00
2019-01-23T05:58:50.529Z,0.00
2019-01-23T05:59:50.505Z,0.00
2019-01-23T06:00:50.488Z,0.00
2019-01-23T06:01:50.469Z,0.00
2019-01-23T06:02:50.534Z,0.00
2019-01-23T06:03:50.501Z,0.00
2019-01-23T06:04:50.457Z,0.00
2019-01-23T06:05:50.462Z,0.00
2019-01-23T06:06:50.415Z,0.00
2019-01-23T06:07:50.440Z,0.00
2019-01-23T06:08:50.412Z,0.00
2019-01-23T06:09:50.382Z,0.00
2019-01-23T06:10:50.374Z,0.00
2019-01-23T06:11:50.376Z,0.00
2019-01-23T06:12:50.351Z,0.00
2019-01-23T06:13:50.390Z,0.00
2019-01-23T06:14:50.330Z,0.00
2019-01-23T06:15:50.333Z,0.00
2019-01-23T06:16:50.307Z,0.00
2019-01-23T06:17:50.334Z,0.00
2019-01-23T06:18:50.336Z,0.00
2019-01-23T06:19:50.312Z,0.00
2019-01-23T06:20:50.268Z,0.00
2019-01-23T06:21:50.260Z,0.00
2019-01-23T06:22:50.249Z,0.00
2019-01-23T06:23:50.254Z,0.00
2019-01-23T06:24:50.241Z,0.00
2019-01-23T06:25:50.214Z,0.00
2019-01-23T06:26:50.243Z,0.00
2019-01-23T06:27:50.252Z,0.00
2019-01-23T06:28:50.208Z,0.00
2019-01-23T06:29:50.205Z,0.00
2019-01-23T06:30:50.176Z,0.00
2019-01-23T06:31:50.190Z,0.00
2019-01-23T06:32:50.141Z,0.00
2019-01-23T06:33:50.168Z,0.00
2019-01-23T06:34:50.128Z,0.00
2019-01-23T06:35:50.112Z,0.00
2019-01-23T06:36:50.102Z,0.00
2019-01-23T06:37:50.093Z,4.00
2019-01-23T06:38:50.116Z,4.00
2019-01-23T06:39:50.087Z,4.00
2019-01-23T06:40:50.066Z,4.00
2019-01-23T06:41:50.057Z,0.00
2019-01-23T06:42:50.050Z,4.00
2019-01-23T06:43:50.047Z,4.00
2019-01-23T06:44:50.045Z,4.00
2019-01-23T06:45:50.014Z,4.00
2019-01-23T06:46:50.045Z,4.00
2019-01-23T06:47:50.001Z,8.00
2019-01-23T06:48:50.016Z,8.00
2019-01-23T06:49:49.969Z,8.00
2019-01-23T06:50:49.997Z,8.00
2019-01-23T06:51:49.991Z,8.00
2019-01-23T06:52:49.945Z,8.00
2019-01-23T06:53:49.946Z,16.00
2019-01-23T06:54:49.966Z,16.00
2019-01-23T06:55:49.906Z,16.00
2019-01-23T06:56:49.921Z,20.00
2019-01-23T06:57:49.885Z,20.00
2019-01-23T06:58:49.896Z,20.00
2019-01-23T06:59:49.893Z,24.00
2019-01-23T07:00:49.878Z,32.00
2019-01-23T07:01:49.881Z,32.00
2019-01-23T07:02:49.889Z,36.00
2019-01-23T07:03:49.869Z,36.00
2019-01-23T07:04:49.879Z,40.00
2019-01-23T07:05:49.804Z,40.00
2019-01-23T07:06:49.832Z,44.00
2019-01-23T07:07:49.783Z,48.00
2019-01-23T07:08:49.806Z,52.00
2019-01-23T07:09:49.780Z,60.00
2019-01-23T07:10:49.785Z,60.00
2019-01-23T07:11:49.747Z,64.00
2019-01-23T07:12:49.763Z,72.00
2019-01-23T07:13:49.758Z,80.00
2019-01-23T07:14:49.757Z,84.00
2019-01-23T07:15:49.716Z,92.00
2019-01-23T07:16:49.694Z,96.00
2019-01-23T07:17:49.691Z,100.00
2019-01-23T07:18:49.689Z,108.00
2019-01-23T07:19:49.711Z,108.00
2019-01-23T07:20:49.689Z,108.00
2019-01-23T07:21:49.669Z,112.00
2019-01-23T07:22:49.631Z,120.00
2019-01-23T07:23:49.657Z,124.00
2019-01-23T07:24:49.621Z,128.00
2019-01-23T07:25:49.615Z,128.00
2019-01-23T07:26:50.592Z,132.00
2019-01-23T07:27:49.649Z,140.00
2019-01-23T07:28:49.567Z,152.00
2019-01-23T07:29:49.591Z,164.00
2019-01-23T07:30:49.597Z,180.00
2019-01-23T07:31:49.536Z,196.00
2019-01-23T07:32:49.596Z,200.00
2019-01-23T07:33:49.565Z,208.00
2019-01-23T07:34:49.515Z,224.00
2019-01-23T07:35:49.847Z,236.00
2019-01-23T07:36:49.507Z,248.00
2019-01-23T07:37:49.480Z,248.00
2019-01-23T07:38:49.507Z,244.00
2019-01-23T07:39:49.469Z,248.00
2019-01-23T07:40:49.518Z,252.00
2019-01-23T07:41:49.499Z,268.00
2019-01-23T07:42:49.493Z,288.00
2019-01-23T07:43:49.493Z,312.00
2019-01-23T07:44:49.428Z,332.00
2019-01-23T07:45:49.457Z,348.00
2019-01-23T07:46:49.423Z,356.00
2019-01-23T07:47:49.374Z,364.00
2019-01-23T07:48:49.370Z,380.00
2019-01-23T07:49:49.429Z,400.00
2019-01-23T07:50:49.362Z,424.00
2019-01-23T07:51:49.349Z,440.00
2019-01-23T07:52:49.319Z,452.00
2019-01-23T07:53:49.323Z,460.00
2019-01-23T07:54:49.312Z,468.00
2019-01-23T07:55:49.882Z,480.00
2019-01-23T07:56:49.299Z,492.00
2019-01-23T07:57:49.291Z,516.00
2019-01-23T07:58:49.264Z,548.00
2019-01-23T07:59:49.246Z,592.00
2019-01-23T08:00:49.289Z,636.00
2019-01-23T08:01:49.289Z,668.00
2019-01-23T08:02:49.216Z,680.00
2019-01-23T08:03:49.258Z,696.00
2019-01-23T08:04:49.196Z,716.00
2019-01-23T08:05:49.260Z,748.00
2019-01-23T08:06:49.180Z,792.00
2019-01-23T08:07:49.183Z,852.00
2019-01-23T08:08:49.156Z,916.00
2019-01-23T08:09:49.159Z,960.00
2019-01-23T08:10:49.178Z,992.00
2019-01-23T08:11:49.141Z,1016.00
2019-01-23T08:12:49.124Z,1036.00
2019-01-23T08:13:49.134Z,1068.00
2019-01-23T08:14:49.142Z,1100.00
2019-01-23T08:15:49.309Z,1128.00
2019-01-23T08:16:49.118Z,1172.00
2019-01-23T08:17:49.064Z,1216.00
2019-01-23T08:18:49.098Z,1264.00
2019-01-23T08:19:49.069Z,1312.00
2019-01-23T08:20:49.053Z,1360.00
2019-01-23T08:21:49.057Z,1396.00
2019-01-23T08:22:49.032Z,1432.00
2019-01-23T08:23:49.045Z,1464.00
2019-01-23T08:24:49.031Z,1472.00
2019-01-23T08:25:48.981Z,1488.00
2019-01-23T08:26:48.989Z,1500.00
2019-01-23T08:27:48.960Z,1508.00
2019-01-23T08:28:48.967Z,1508.00
2019-01-23T08:29:48.963Z,1504.00
2019-01-23T08:30:48.942Z,1492.00
2019-01-23T08:31:48.976Z,1488.00
2019-01-23T08:32:48.915Z,1500.00
2019-01-23T08:33:48.975Z,1532.00
2019-01-23T08:34:48.916Z,1580.00
2019-01-23T08:35:48.886Z,1620.00
2019-01-23T08:36:48.947Z,1636.00
2019-01-23T08:37:48.931Z,1640.00
2019-01-23T08:38:48.846Z,1660.00
2019-01-23T08:39:50.509Z,1712.00
2019-01-23T08:40:48.868Z,1764.00
2019-01-23T08:41:48.870Z,1796.00
2019-01-23T08:42:49.575Z,1808.00
2019-01-23T08:43:48.794Z,1816.00
2019-01-23T08:44:48.788Z,1828.00
2019-01-23T08:45:48.779Z,1840.00
2019-01-23T08:46:48.798Z,1852.00
2019-01-23T08:47:48.755Z,1840.00
2019-01-23T08:48:48.797Z,1836.00
2019-01-23T08:49:48.736Z,1836.00
2019-01-23T08:50:48.756Z,1852.00
2019-01-23T08:51:48.729Z,1868.00
2019-01-23T08:52:48.755Z,1880.00
2019-01-23T08:53:48.745Z,1888.00
2019-01-23T08:54:48.692Z,1888.00
2019-01-23T08:55:53.487Z,1904.00
2019-01-23T08:56:49.697Z,1932.00
2019-01-23T08:57:48.650Z,1968.00
2019-01-23T08:58:48.646Z,2040.00
2019-01-23T08:59:48.726Z,2136.00
2019-01-23T09:00:48.640Z,2244.00
2019-01-23T09:01:48.636Z,2368.00
2019-01-23T09:02:48.598Z,2548.00
2019-01-23T09:03:48.619Z,2720.00
2019-01-23T09:04:48.636Z,2792.00
2019-01-23T09:05:48.579Z,2700.00
2019-01-23T09:06:48.611Z,2496.00
2019-01-23T09:07:48.564Z,2340.00
2019-01-23T09:08:48.536Z,2240.00
2019-01-23T09:09:48.528Z,2160.00
2019-01-23T09:10:48.519Z,2116.00
2019-01-23T09:11:48.525Z,2116.00
2019-01-23T09:12:48.511Z,2180.00
2019-01-23T09:13:48.544Z,2304.00
2019-01-23T09:14:48.495Z,2424.00
2019-01-23T09:15:48.660Z,2512.00
2019-01-23T09:16:48.492Z,2604.00
2019-01-23T09:17:48.856Z,2692.00
2019-01-23T09:18:48.433Z,2752.00
2019-01-23T09:19:48.428Z,2812.00
2019-01-23T09:20:49.278Z,2912.00
2019-01-23T09:21:48.439Z,3056.00
2019-01-23T09:22:48.486Z,3208.00
2019-01-23T09:23:48.389Z,3320.00
2019-01-23T09:24:48.417Z,3384.00
2019-01-23T09:25:50.111Z,3452.00
2019-01-23T09:26:48.355Z,3552.00
2019-01-23T09:27:48.363Z,3640.00
2019-01-23T09:28:48.457Z,3684.00
2019-01-23T09:29:48.318Z,3676.00
2019-01-23T09:30:52.589Z,3652.00
2019-01-23T09:31:49.331Z,3668.00
2019-01-23T09:32:48.346Z,3712.00
2019-01-23T09:33:48.279Z,3700.00
2019-01-23T09:34:48.323Z,3636.00
2019-01-23T09:35:48.291Z,3628.00
2019-01-23T09:36:48.308Z,3672.00
2019-01-23T09:37:48.281Z,3760.00
2019-01-23T09:38:48.263Z,3856.00
2019-01-23T09:39:48.244Z,3928.00
2019-01-23T09:40:48.267Z,3944.00
2019-01-23T09:41:48.315Z,3784.00
2019-01-23T09:42:48.300Z,3668.00
2019-01-23T09:43:48.229Z,3728.00
2019-01-23T09:44:48.198Z,3904.00
2019-01-23T09:45:48.230Z,4108.00
2019-01-23T09:46:48.145Z,4268.00
2019-01-23T09:47:48.229Z,4376.00
2019-01-23T09:48:48.179Z,4448.00
2019-01-23T09:49:48.177Z,4508.00
2019-01-23T09:50:48.313Z,4564.00
2019-01-23T09:51:48.125Z,4640.00
2019-01-23T09:52:48.190Z,4704.00
2019-01-23T09:53:48.128Z,4732.00
2019-01-23T09:54:48.172Z,4748.00
2019-01-23T09:55:48.114Z,4740.00
2019-01-23T09:56:48.153Z,4764.00
2019-01-23T09:57:48.362Z,4752.00
2019-01-23T09:58:48.022Z,4720.00
2019-01-23T09:59:48.180Z,4644.00
2019-01-23T10:00:48.026Z,4528.00
2019-01-23T10:01:48.042Z,4512.00
2019-01-23T10:02:48.387Z,4556.00
2019-01-23T10:03:48.085Z,4600.00
2019-01-23T10:04:47.964Z,4620.00
2019-01-23T10:05:48.036Z,4652.00
2019-01-23T10:06:48.125Z,4712.00
2019-01-23T10:07:48.162Z,4784.00
2019-01-23T10:08:48.848Z,4856.00
2019-01-23T10:09:47.971Z,4952.00
2019-01-23T10:10:47.907Z,5092.00
2019-01-23T10:11:47.890Z,5288.00
2019-01-23T10:12:47.880Z,5492.00
2019-01-23T10:13:47.890Z,5724.00
2019-01-23T10:14:47.931Z,5908.00
2019-01-23T10:15:47.909Z,6004.00
2019-01-23T10:16:47.848Z,6020.00
2019-01-23T10:17:47.854Z,6028.00
2019-01-23T10:18:47.933Z,6044.00
2019-01-23T10:19:47.842Z,6108.00
2019-01-23T10:20:47.808Z,6228.00
2019-01-23T10:21:47.782Z,6428.00
2019-01-23T10:22:47.829Z,6560.00
2019-01-23T10:23:47.803Z,6604.00
2019-01-23T10:24:47.753Z,6564.00
2019-01-23T10:25:47.773Z,6488.00
2019-01-23T10:26:47.838Z,6428.00
2019-01-23T10:27:47.746Z,6808.00
2019-01-23T10:28:47.781Z,7032.00
2019-01-23T10:29:47.701Z,6984.00
2019-01-23T10:30:47.689Z,6932.00
2019-01-23T10:31:47.708Z,6940.00
2019-01-23T10:32:47.678Z,7044.00
2019-01-23T10:33:47.696Z,7236.00
2019-01-23T10:34:47.648Z,7512.00
2019-01-23T10:35:47.638Z,7668.00
2019-01-23T10:36:47.705Z,7872.00
2019-01-23T10:37:47.672Z,8024.00
2019-01-23T10:38:47.858Z,8156.00
2019-01-23T10:39:47.666Z,8312.00
2019-01-23T10:40:47.629Z,8488.00
2019-01-23T10:41:47.574Z,8600.00
2019-01-23T10:42:47.645Z,8576.00
2019-01-23T10:43:48.337Z,8396.00
2019-01-23T10:44:47.545Z,8260.00
2019-01-23T10:45:47.553Z,8088.00
2019-01-23T10:46:47.598Z,8096.00
2019-01-23T10:47:47.513Z,8620.00
2019-01-23T10:48:47.534Z,9532.00
2019-01-23T10:49:47.711Z,9940.00
2019-01-23T10:50:47.668Z,9932.00
2019-01-23T10:51:47.966Z,9804.00
2019-01-23T10:52:47.752Z,9880.00
2019-01-23T10:53:47.776Z,9772.00
2019-01-23T10:54:48.758Z,9848.00
2019-01-23T10:55:47.656Z,10020.00
2019-01-23T10:56:48.335Z,9104.00
2019-01-23T10:57:47.975Z,8780.00
2019-01-23T10:58:48.303Z,9928.00
2019-01-23T10:59:48.483Z,10132.00
2019-01-23T11:00:47.446Z,10080.00
2019-01-23T11:01:47.714Z,9844.00
2019-01-23T11:02:47.904Z,9512.00
2019-01-23T11:03:48.236Z,9232.00
2019-01-23T11:04:47.755Z,9068.00
2019-01-23T11:05:47.438Z,9000.00
2019-01-23T11:06:47.327Z,9432.00
2019-01-23T11:07:47.566Z,9796.00
2019-01-23T11:08:48.864Z,9852.00
2019-01-23T11:09:47.655Z,9748.00
2019-01-23T11:10:47.283Z,9736.00
2019-01-23T11:11:47.867Z,9716.00
2019-01-23T11:12:48.300Z,9884.00
2019-01-23T11:13:47.259Z,10176.00
2019-01-23T11:14:47.469Z,10528.00
2019-01-23T11:15:47.332Z,10556.00
2019-01-23T11:16:47.224Z,10500.00
2019-01-23T11:17:48.153Z,10152.00
2019-01-23T11:18:49.815Z,9288.00
2019-01-23T11:19:47.291Z,8204.00
2019-01-23T11:20:47.256Z,8468.00
2019-01-23T11:21:47.750Z,8728.00
2019-01-23T11:22:47.182Z,9064.00
2019-01-23T11:23:49.163Z,9256.00
2019-01-23T11:24:47.641Z,9384.00
2019-01-23T11:25:48.035Z,9576.00
2019-01-23T11:26:47.208Z,9668.00
2019-01-23T11:27:47.524Z,9636.00
2019-01-23T11:28:47.157Z,9676.00
2019-01-23T11:29:50.318Z,9880.00
2019-01-23T11:30:48.230Z,9652.00
2019-01-23T11:31:48.707Z,9592.00
2019-01-23T11:32:48.261Z,9608.00
2019-01-23T11:33:47.549Z,9272.00
2019-01-23T11:34:47.872Z,9028.00
2019-01-23T11:35:47.939Z,8960.00
2019-01-23T11:36:47.947Z,8888.00
2019-01-23T11:37:47.049Z,9012.00
2019-01-23T11:38:47.334Z,9072.00
2019-01-23T11:39:47.482Z,8868.00
2019-01-23T11:40:47.275Z,8744.00
2019-01-23T11:41:48.458Z,8664.00
2019-01-23T11:42:47.161Z,8564.00
2019-01-23T11:43:47.070Z,8636.00
2019-01-23T11:44:48.417Z,8772.00
2019-01-23T11:45:48.098Z,9224.00
2019-01-23T11:46:46.903Z,9760.00
2019-01-23T11:47:49.079Z,10140.00
2019-01-23T11:48:46.921Z,10068.00
2019-01-23T11:49:47.410Z,9844.00
2019-01-23T11:50:47.043Z,9912.00
2019-01-23T11:51:48.213Z,10292.00
2019-01-23T11:52:47.871Z,10676.00
2019-01-23T11:53:48.141Z,10792.00
2019-01-23T11:54:47.664Z,10724.00
2019-01-23T11:55:46.836Z,10544.00
2019-01-23T11:56:47.869Z,10392.00
2019-01-23T11:57:46.875Z,10028.00
2019-01-23T11:58:47.857Z,9604.00
2019-01-23T11:59:46.973Z,9416.00
2019-01-23T12:00:46.933Z,9424.00
2019-01-23T12:01:47.561Z,9436.00
2019-01-23T12:02:50.243Z,9272.00
2019-01-23T12:03:46.729Z,8736.00
2019-01-23T12:04:47.739Z,8040.00
2019-01-23T12:05:47.208Z,7612.00
2019-01-23T12:06:46.843Z,7320.00
2019-01-23T12:07:48.258Z,7380.00
2019-01-23T12:08:47.339Z,7680.00
2019-01-23T12:09:46.797Z,7596.00
2019-01-23T12:10:46.755Z,7304.00
2019-01-23T12:11:46.661Z,7096.00
2019-01-23T12:12:47.446Z,7028.00
2019-01-23T12:13:46.731Z,7220.00
2019-01-23T12:14:47.904Z,7504.00
2019-01-23T12:15:46.620Z,7780.00
2019-01-23T12:16:46.799Z,7960.00
2019-01-23T12:17:46.721Z,8072.00
2019-01-23T12:18:47.016Z,8280.00
2019-01-23T12:19:48.414Z,8604.00
2019-01-23T12:20:47.668Z,9016.00
2019-01-23T12:21:46.962Z,9508.00
2019-01-23T12:22:48.207Z,9892.00
2019-01-23T12:23:58.042Z,10268.00
2019-01-23T12:24:47.619Z,10540.00
2019-01-23T12:26:07.949Z,10672.00
2019-01-23T12:26:46.527Z,10652.00
2019-01-23T12:27:49.225Z,10688.00
2019-01-23T12:28:47.390Z,10784.00
2019-01-23T12:29:50.949Z,10952.00
2019-01-23T12:30:46.538Z,11264.00
2019-01-23T12:31:47.321Z,11532.00
2019-01-23T12:32:47.349Z,11752.00
2019-01-23T12:33:46.458Z,11868.00
2019-01-23T12:34:48.668Z,11784.00
2019-01-23T12:35:47.434Z,11796.00
2019-01-23T12:36:46.446Z,11748.00
2019-01-23T12:37:46.871Z,11772.00
2019-01-23T12:38:47.906Z,11908.00
2019-01-23T12:39:47.582Z,12060.00
2019-01-23T12:40:51.484Z,12096.00
2019-01-23T12:41:47.654Z,12008.00
2019-01-23T12:42:46.715Z,11920.00
2019-01-23T12:43:46.592Z,11976.00
2019-01-23T12:44:46.295Z,12016.00
2019-01-23T12:45:46.366Z,11992.00